Time;durP1;ratioP1;P1;durP2;ratioP2;P2;SDS_P1;SDS_P2;PMS_P1;PMS_P2;Temp;Humidity;BMP_temperature;BMP_pressure;BME280_temperature;BME280_humidity;BME280_pressure;Samples;Min_cycle;Max_cycle;Signal;HPM_P1;HPM_P2
2022/04/23 00:01:30;;;;;;;;;;;21.60;50.10;;;;;;5063313;28;19935;-71
2022/04/23 00:03:55;;;;;;;;;;;21.60;50.10;;;;;;5066092;28;20378;-70
2022/04/23 00:06:21;;;;;;;;;;;21.60;50.00;;;;;;5047895;28;19920;-70
2022/04/23 00:08:46;;;;;;;;;;;21.60;50.00;;;;;;5067673;28;20037;-71
2022/04/23 00:11:12;;;;;;;;;;;21.60;50.00;;;;;;5084261;28;19923;-71
2022/04/23 00:13:38;;;;;;;;;;;21.50;49.80;;;;;;5057937;28;19920;-71
2022/04/23 00:16:04;;;;;;;;;;;21.50;49.90;;;;;;5062454;28;19985;-71
2022/04/23 00:18:30;;;;;;;;;;;21.50;49.90;;;;;;5067956;28;19924;-72
2022/04/23 00:20:56;;;;;;;;;;;21.50;49.80;;;;;;5058733;28;19924;-71
2022/04/23 00:23:21;;;;;;;;;;;21.50;49.80;;;;;;5050505;28;20160;-73
2022/04/23 00:25:50;;;;;;;;;;;21.50;49.80;;;;;;5066064;28;19999;-71
2022/04/23 00:28:17;;;;;;;;;;;21.50;49.80;;;;;;5067644;28;19924;-72
2022/04/23 00:30:44;;;;;;;;;;;21.50;49.80;;;;;;5062989;28;20137;-71
2022/04/23 00:33:10;;;;;;;;;;;21.40;49.80;;;;;;5056202;28;20295;-71
2022/04/23 00:35:36;;;;;;;;;;;21.50;49.80;;;;;;5066138;28;19924;-70
2022/04/23 00:38:02;;;;;;;;;;;21.40;49.70;;;;;;5068232;28;19923;-72
2022/04/23 00:40:28;;;;;;;;;;;21.50;49.80;;;;;;5067233;28;20321;-70
2022/04/23 00:42:55;;;;;;;;;;;21.40;49.70;;;;;;5068530;28;19973;-70
2022/04/23 00:45:21;;;;;;;;;;;21.40;49.70;;;;;;5066755;28;19955;-72
2022/04/23 00:47:47;;;;;;;;;;;21.40;49.70;;;;;;5067641;28;19920;-72
2022/04/23 00:50:13;;;;;;;;;;;21.40;49.70;;;;;;5062939;28;19930;-72
2022/04/23 00:52:38;;;;;;;;;;;21.30;49.60;;;;;;5066470;28;20024;-69
2022/04/23 00:55:04;;;;;;;;;;;21.40;49.70;;;;;;5048865;28;19924;-70
2022/04/23 00:57:30;;;;;;;;;;;21.30;49.60;;;;;;5048544;28;19959;-72
2022/04/23 00:59:56;;;;;;;;;;;21.40;49.70;;;;;;5063076;28;19984;-72
2022/04/23 01:02:22;;;;;;;;;;;21.30;49.60;;;;;;5085477;28;19927;-71
2022/04/23 01:04:48;;;;;;;;;;;21.30;49.60;;;;;;5070819;28;19920;-72
2022/04/23 01:07:13;;;;;;;;;;;21.30;49.60;;;;;;5067157;28;20016;-72
2022/04/23 01:09:44;;;;;;;;;;;21.30;49.60;;;;;;5040079;28;20265;-71
2022/04/23 01:12:10;;;;;;;;;;;21.30;49.60;;;;;;5066504;28;20390;-71
2022/04/23 01:14:55;;;;;;;;;;;21.20;49.50;;;;;;5060027;28;19967;-69
2022/04/23 01:17:21;;;;;;;;;;;21.30;49.60;;;;;;5058436;28;19920;-73
2022/04/23 01:19:46;;;;;;;;;;;21.20;49.50;;;;;;5044568;28;19927;-71
2022/04/23 01:22:12;;;;;;;;;;;21.20;49.50;;;;;;5067999;28;20397;-71
2022/04/23 01:24:37;;;;;;;;;;;21.20;49.50;;;;;;5064338;28;19978;-70
2022/04/23 01:27:05;;;;;;;;;;;21.20;49.50;;;;;;5086702;28;19923;-71
2022/04/23 01:29:30;;;;;;;;;;;21.20;49.50;;;;;;5083036;28;20374;-71
2022/04/23 01:31:56;;;;;;;;;;;21.20;49.50;;;;;;5067531;28;19924;-71
2022/04/23 01:34:21;;;;;;;;;;;21.20;49.50;;;;;;5084522;28;19990;-73
2022/04/23 01:36:47;;;;;;;;;;;21.20;49.50;;;;;;5067223;28;19927;-71
2022/04/23 01:39:12;;;;;;;;;;;21.20;49.50;;;;;;5084185;28;19923;-72
2022/04/23 01:41:38;;;;;;;;;;;21.10;49.40;;;;;;5064963;28;20037;-70
2022/04/23 01:44:03;;;;;;;;;;;21.10;49.40;;;;;;5049535;28;19924;-71
2022/04/23 01:46:29;;;;;;;;;;;21.10;49.40;;;;;;5065296;28;19946;-76
2022/04/23 01:48:54;;;;;;;;;;;21.10;49.40;;;;;;5067533;28;20272;-72
2022/04/23 01:51:19;;;;;;;;;;;21.10;49.40;;;;;;5065778;28;19965;-76
2022/04/23 01:53:45;;;;;;;;;;;21.10;49.40;;;;;;5068654;28;19924;-75
2022/04/23 01:56:11;;;;;;;;;;;21.10;49.40;;;;;;5051024;28;20272;-74
2022/04/23 01:58:37;;;;;;;;;;;21.10;49.40;;;;;;5059442;28;20435;-75
2022/04/23 02:01:03;;;;;;;;;;;21.10;49.50;;;;;;5060282;28;20014;-71
2022/04/23 02:03:29;;;;;;;;;;;21.00;49.30;;;;;;5070380;28;20105;-72
2022/04/23 02:05:55;;;;;;;;;;;21.10;49.40;;;;;;5064501;28;19924;-71
2022/04/23 02:08:21;;;;;;;;;;;21.00;49.30;;;;;;5066089;28;20387;-70
2022/04/23 02:10:47;;;;;;;;;;;21.00;49.30;;;;;;5060829;28;20334;-71
2022/04/23 02:13:13;;;;;;;;;;;21.00;49.30;;;;;;5069210;28;20014;-71
2022/04/23 02:15:40;;;;;;;;;;;21.00;49.30;;;;;;5070584;28;19924;-70
2022/04/23 02:18:06;;;;;;;;;;;21.00;49.30;;;;;;5068906;28;19927;-71
2022/04/23 02:20:32;;;;;;;;;;;21.00;49.30;;;;;;5068229;28;19920;-70
2022/04/23 02:22:57;;;;;;;;;;;21.00;49.30;;;;;;5053949;28;19969;-70
2022/04/23 02:25:24;;;;;;;;;;;21.00;49.30;;;;;;5068792;28;20397;-71
2022/04/23 02:27:50;;;;;;;;;;;20.90;49.20;;;;;;5054411;28;19985;-71
2022/04/23 02:30:16;;;;;;;;;;;20.90;49.20;;;;;;5087228;28;19920;-71
2022/04/23 02:32:42;;;;;;;;;;;20.90;49.20;;;;;;5088068;28;19971;-72
2022/04/23 02:35:08;;;;;;;;;;;20.90;49.20;;;;;;5070727;28;19962;-70
2022/04/23 02:37:35;;;;;;;;;;;20.90;49.20;;;;;;5088513;28;19920;-72
2022/04/23 02:40:01;;;;;;;;;;;20.90;49.20;;;;;;5053722;28;19931;-71
2022/04/23 02:42:27;;;;;;;;;;;20.90;49.20;;;;;;5067359;28;19920;-71
2022/04/23 02:44:53;;;;;;;;;;;20.90;49.20;;;;;;5051449;28;20303;-71
2022/04/23 02:47:18;;;;;;;;;;;20.90;49.20;;;;;;5066581;28;19926;-71
2022/04/23 02:49:44;;;;;;;;;;;20.90;49.20;;;;;;5058253;28;19960;-71
2022/04/23 02:52:10;;;;;;;;;;;20.90;49.20;;;;;;5064966;28;19998;-71
2022/04/23 02:54:35;;;;;;;;;;;20.80;49.20;;;;;;5044060;28;19924;-71
2022/04/23 02:57:01;;;;;;;;;;;20.80;49.20;;;;;;5064870;28;19924;-71
2022/04/23 02:59:26;;;;;;;;;;;20.80;49.20;;;;;;5087241;28;19939;-70
2022/04/23 03:01:52;;;;;;;;;;;20.80;49.20;;;;;;5069265;28;19931;-70
2022/04/23 03:04:19;;;;;;;;;;;20.80;49.10;;;;;;5072921;28;20021;-71
2022/04/23 03:06:45;;;;;;;;;;;20.80;49.20;;;;;;5052392;28;19950;-71
2022/04/23 03:09:11;;;;;;;;;;;20.80;49.20;;;;;;5062185;28;19924;-71
2022/04/23 03:11:36;;;;;;;;;;;20.80;49.20;;;;;;5053030;28;20362;-71
2022/04/23 03:14:03;;;;;;;;;;;20.80;49.10;;;;;;5053469;28;20019;-71
2022/04/23 03:16:29;;;;;;;;;;;20.80;49.10;;;;;;5069030;28;20441;-72
2022/04/23 03:18:54;;;;;;;;;;;20.80;49.20;;;;;;5087533;28;20456;-72
2022/04/23 03:21:20;;;;;;;;;;;20.80;49.10;;;;;;5078044;28;19955;-71
2022/04/23 03:23:45;;;;;;;;;;;20.70;49.10;;;;;;5072377;28;19989;-71
2022/04/23 03:26:11;;;;;;;;;;;20.70;49.10;;;;;;5064396;28;20360;-71
2022/04/23 03:28:36;;;;;;;;;;;20.70;49.10;;;;;;5067869;28;20284;-71
2022/04/23 03:31:02;;;;;;;;;;;20.70;49.90;;;;;;5069187;28;20299;-70
2022/04/23 03:33:28;;;;;;;;;;;20.70;49.10;;;;;;5067442;28;20496;-70
2022/04/23 03:35:54;;;;;;;;;;;20.70;49.10;;;;;;5068848;28;19924;-71
2022/04/23 03:38:19;;;;;;;;;;;20.70;49.10;;;;;;5061227;28;19939;-71
2022/04/23 03:40:45;;;;;;;;;;;20.70;49.10;;;;;;5069525;28;19919;-71
2022/04/23 03:43:12;;;;;;;;;;;20.70;49.10;;;;;;5068176;28;20406;-70
2022/04/23 03:45:38;;;;;;;;;;;20.70;49.00;;;;;;5049187;28;19931;-70
2022/04/23 03:48:03;;;;;;;;;;;20.70;49.00;;;;;;5057352;28;20293;-71
2022/04/23 03:50:33;;;;;;;;;;;20.70;49.00;;;;;;5067562;28;19923;-70
2022/04/23 03:52:58;;;;;;;;;;;20.70;49.10;;;;;;5069112;28;20359;-70
2022/04/23 03:55:25;;;;;;;;;;;20.60;49.00;;;;;;5077617;28;20040;-71
2022/04/23 03:57:51;;;;;;;;;;;20.60;49.00;;;;;;5069792;28;19920;-70
2022/04/23 04:00:17;;;;;;;;;;;20.60;49.00;;;;;;5066955;28;20414;-71
2022/04/23 04:02:43;;;;;;;;;;;20.60;49.00;;;;;;5086773;28;19923;-70
2022/04/23 04:05:10;;;;;;;;;;;20.60;49.00;;;;;;5068844;28;20441;-70
2022/04/23 04:07:39;;;;;;;;;;;20.60;49.00;;;;;;5068551;28;19924;-72
2022/04/23 04:10:05;;;;;;;;;;;20.60;49.00;;;;;;5066896;28;19973;-71
2022/04/23 04:12:30;;;;;;;;;;;20.60;49.00;;;;;;5068908;28;19931;-71
2022/04/23 04:14:57;;;;;;;;;;;20.60;49.00;;;;;;5053176;28;19920;-70
2022/04/23 04:17:23;;;;;;;;;;;20.60;49.00;;;;;;5067742;28;19934;-71
2022/04/23 04:19:48;;;;;;;;;;;20.60;49.00;;;;;;5068002;28;19923;-71
2022/04/23 04:22:14;;;;;;;;;;;20.60;49.00;;;;;;5066054;28;19924;-70
2022/04/23 04:24:40;;;;;;;;;;;20.60;49.00;;;;;;5067248;28;20435;-71
2022/04/23 04:27:06;;;;;;;;;;;20.60;49.00;;;;;;5085019;28;19924;-71
2022/04/23 04:29:32;;;;;;;;;;;20.60;49.00;;;;;;5074429;28;19928;-73
2022/04/23 04:31:57;;;;;;;;;;;20.60;49.00;;;;;;5085765;28;20290;-69
2022/04/23 04:34:24;;;;;;;;;;;20.60;49.00;;;;;;5040565;28;19971;-70
2022/04/23 04:36:50;;;;;;;;;;;20.50;48.90;;;;;;5041002;28;19927;-71
2022/04/23 04:39:16;;;;;;;;;;;20.60;49.00;;;;;;5066864;28;20145;-70
2022/04/23 04:41:42;;;;;;;;;;;20.60;49.00;;;;;;5068694;28;19934;-70
2022/04/23 04:44:08;;;;;;;;;;;20.50;48.90;;;;;;5066849;28;19924;-69
2022/04/23 04:46:34;;;;;;;;;;;20.60;49.00;;;;;;5069006;28;19963;-72
2022/04/23 04:49:00;;;;;;;;;;;20.50;48.90;;;;;;5067380;28;20421;-73
2022/04/23 04:51:25;;;;;;;;;;;20.50;48.90;;;;;;5066271;28;19959;-70
2022/04/23 04:53:53;;;;;;;;;;;20.50;48.90;;;;;;5086737;28;19924;-72
2022/04/23 04:56:19;;;;;;;;;;;20.50;48.90;;;;;;5082867;28;19981;-71
2022/04/23 04:58:46;;;;;;;;;;;20.50;48.80;;;;;;5052595;28;19923;-75
2022/04/23 05:01:12;;;;;;;;;;;20.50;48.80;;;;;;5060845;28;19977;-71
2022/04/23 05:03:39;;;;;;;;;;;20.60;48.90;;;;;;5065237;28;19924;-70
2022/04/23 05:06:05;;;;;;;;;;;20.60;48.90;;;;;;5066807;28;19982;-71
2022/04/23 05:08:30;;;;;;;;;;;20.50;48.80;;;;;;5048304;28;20379;-70
2022/04/23 05:10:56;;;;;;;;;;;20.50;48.80;;;;;;5064488;28;19920;-71
2022/04/23 05:13:21;;;;;;;;;;;20.50;48.80;;;;;;5085846;28;20303;-71
2022/04/23 05:15:48;;;;;;;;;;;20.50;48.80;;;;;;5066918;28;20015;-71
2022/04/23 05:18:14;;;;;;;;;;;20.50;48.80;;;;;;5049487;28;19931;-71
2022/04/23 05:20:40;;;;;;;;;;;20.60;48.80;;;;;;5067827;28;19924;-74
2022/04/23 05:23:06;;;;;;;;;;;20.50;48.80;;;;;;5063637;28;20358;-72
2022/04/23 05:25:31;;;;;;;;;;;20.50;48.70;;;;;;5077042;28;19924;-70
2022/04/23 05:27:58;;;;;;;;;;;20.50;48.80;;;;;;5066519;28;19973;-72
2022/04/23 05:30:23;;;;;;;;;;;20.50;48.70;;;;;;5084468;28;19926;-71
2022/04/23 05:32:48;;;;;;;;;;;20.50;48.70;;;;;;5065489;28;19924;-71
2022/04/23 05:35:14;;;;;;;;;;;20.50;48.70;;;;;;5068737;28;19926;-72
2022/04/23 05:37:40;;;;;;;;;;;20.50;48.70;;;;;;5090280;28;19930;-74
2022/04/23 05:40:06;;;;;;;;;;;20.50;48.60;;;;;;5053623;28;19963;-70
2022/04/23 05:42:31;;;;;;;;;;;20.50;48.70;;;;;;5089288;28;19962;-71
2022/04/23 05:44:57;;;;;;;;;;;20.50;48.70;;;;;;5070572;28;19920;-70
2022/04/23 05:47:22;;;;;;;;;;;20.60;48.70;;;;;;5054490;28;19939;-71
2022/04/23 05:49:48;;;;;;;;;;;20.60;48.70;;;;;;5071788;28;20256;-70
2022/04/23 05:52:13;;;;;;;;;;;20.50;49.40;;;;;;5062571;28;19938;-74
2022/04/23 05:54:39;;;;;;;;;;;20.50;48.60;;;;;;5069474;28;19924;-70
2022/04/23 05:57:04;;;;;;;;;;;20.60;48.70;;;;;;5086362;28;20361;-70
2022/04/23 05:59:31;;;;;;;;;;;20.60;48.60;;;;;;5071762;28;19924;-73
2022/04/23 06:01:57;;;;;;;;;;;20.60;48.70;;;;;;5069162;28;19972;-71
2022/04/23 06:04:23;;;;;;;;;;;20.60;48.80;;;;;;5071311;28;19920;-71
2022/04/23 06:06:48;;;;;;;;;;;20.60;48.80;;;;;;5070031;28;19967;-71
2022/04/23 06:09:14;;;;;;;;;;;20.60;48.80;;;;;;5089447;28;19927;-70
2022/04/23 06:11:39;;;;;;;;;;;20.60;48.80;;;;;;5070371;28;19924;-71
2022/04/23 06:14:05;;;;;;;;;;;20.70;49.00;;;;;;5070526;28;19924;-71
2022/04/23 06:16:31;;;;;;;;;;;20.70;49.00;;;;;;5078071;28;19959;-71
2022/04/23 06:18:56;;;;;;;;;;;20.60;49.00;;;;;;5071134;28;20431;-71
2022/04/23 06:21:24;;;;;;;;;;;20.70;49.10;;;;;;5088102;28;19971;-72
2022/04/23 06:23:50;;;;;;;;;;;20.70;49.30;;;;;;5064561;28;19982;-72
2022/04/23 06:26:16;;;;;;;;;;;20.70;49.40;;;;;;5071913;28;19924;-71
2022/04/23 06:28:41;;;;;;;;;;;20.70;49.40;;;;;;5071876;28;19927;-74
2022/04/23 06:31:07;;;;;;;;;;;20.70;49.40;;;;;;5060235;28;19924;-74
2022/04/23 06:33:32;;;;;;;;;;;20.70;49.50;;;;;;5083391;28;19920;-71
2022/04/23 06:36:01;;;;;;;;;;;20.80;49.50;;;;;;5088604;28;19923;-72
2022/04/23 06:38:26;;;;;;;;;;;20.80;49.60;;;;;;5070562;28;19965;-72
2022/04/23 06:40:51;;;;;;;;;;;20.90;49.60;;;;;;5064856;28;19928;-72
2022/04/23 06:43:17;;;;;;;;;;;20.90;49.70;;;;;;5070836;28;20468;-76
2022/04/23 06:45:43;;;;;;;;;;;20.90;49.70;;;;;;5063702;28;19994;-73
2022/04/23 06:48:08;;;;;;;;;;;21.00;49.80;;;;;;5062509;28;19974;-71
2022/04/23 06:50:37;;;;;;;;;;;21.00;49.80;;;;;;5083757;28;19928;-73
2022/04/23 06:53:03;;;;;;;;;;;21.00;49.80;;;;;;5041051;28;19981;-72
2022/04/23 06:55:29;;;;;;;;;;;21.10;49.70;;;;;;5062856;28;19924;-73
2022/04/23 06:57:54;;;;;;;;;;;21.10;49.60;;;;;;5061856;28;19920;-73
2022/04/23 07:00:23;;;;;;;;;;;21.20;49.70;;;;;;5060465;28;19986;-73
2022/04/23 07:02:49;;;;;;;;;;;21.20;49.70;;;;;;5061463;28;20249;-73
2022/04/23 07:05:14;;;;;;;;;;;21.20;49.80;;;;;;5042739;28;20129;-74
2022/04/23 07:07:40;;;;;;;;;;;21.30;49.90;;;;;;5045379;28;20381;-73
2022/04/23 07:10:06;;;;;;;;;;;21.30;49.90;;;;;;5058566;28;19977;-71
2022/04/23 07:12:33;;;;;;;;;;;21.40;50.00;;;;;;5054483;28;20460;-74
2022/04/23 07:14:59;;;;;;;;;;;21.40;49.90;;;;;;5056541;28;19924;-72
2022/04/23 07:17:25;;;;;;;;;;;21.50;49.80;;;;;;5054307;28;19948;-73
2022/04/23 07:19:53;;;;;;;;;;;21.50;49.80;;;;;;5073482;28;20796;-72
2022/04/23 07:22:19;;;;;;;;;;;21.60;49.90;;;;;;5043994;28;19970;-73
2022/04/23 07:24:45;;;;;;;;;;;21.60;49.70;;;;;;5056455;28;19975;-72
2022/04/23 07:27:11;;;;;;;;;;;21.60;49.70;;;;;;5058601;28;20540;-73
2022/04/23 07:29:36;;;;;;;;;;;21.70;49.70;;;;;;5057188;28;20444;-72
2022/04/23 07:32:02;;;;;;;;;;;21.70;50.40;;;;;;5053542;28;19924;-74
2022/04/23 07:37:31;;;;;;;;;;;21.80;49.70;;;;;;5051272;28;20010;-74
2022/04/23 07:39:58;;;;;;;;;;;21.90;49.60;;;;;;5039891;28;19925;-72
2022/04/23 07:42:23;;;;;;;;;;;21.90;49.40;;;;;;5058988;28;19970;-81
2022/04/23 07:44:49;;;;;;;;;;;22.00;49.40;;;;;;5053789;28;21464;-73
2022/04/23 07:47:14;;;;;;;;;;;22.00;49.40;;;;;;5054839;28;19924;-75
2022/04/23 07:49:40;;;;;;;;;;;22.00;49.30;;;;;;5056269;28;20299;-73
2022/04/23 07:52:05;;;;;;;;;;;22.10;49.90;;;;;;5046088;28;19924;-73
2022/04/23 07:54:31;;;;;;;;;;;22.10;48.90;;;;;;5058888;28;19931;-76
2022/04/23 07:56:56;;;;;;;;;;;22.10;49.70;;;;;;5055552;28;19929;-75
2022/04/23 07:59:22;;;;;;;;;;;22.10;48.80;;;;;;5052244;28;19955;-77
2022/04/23 08:01:49;;;;;;;;;;;22.20;48.80;;;;;;5056090;28;19983;-75
2022/04/23 08:04:14;;;;;;;;;;;22.20;48.80;;;;;;5056021;28;20680;-79
2022/04/23 08:06:40;;;;;;;;;;;22.30;48.70;;;;;;5057833;28;19974;-77
2022/04/23 08:09:05;;;;;;;;;;;22.30;48.70;;;;;;5054241;28;20319;-72
2022/04/23 08:11:31;;;;;;;;;;;22.40;48.70;;;;;;5061387;28;20751;-73
2022/04/23 08:13:57;;;;;;;;;;;22.40;48.60;;;;;;5048263;28;19927;-73
2022/04/23 08:16:22;;;;;;;;;;;22.40;48.50;;;;;;5055252;28;20487;-74
2022/04/23 08:18:48;;;;;;;;;;;22.40;48.40;;;;;;5057555;28;19930;-75
2022/04/23 08:21:14;;;;;;;;;;;22.50;48.20;;;;;;5069799;28;19930;-74
2022/04/23 08:23:39;;;;;;;;;;;22.50;48.00;;;;;;5084451;28;20372;-76
2022/04/23 08:26:05;;;;;;;;;;;22.50;47.90;;;;;;5065764;28;19965;-76
2022/04/23 08:31:18;;;;;;;;;;;22.60;47.80;;;;;;5063144;28;20363;-74
2022/04/23 08:33:59;;;;;;;;;;;22.60;47.70;;;;;;5043870;28;19924;-75
2022/04/23 08:36:32;;;;;;;;;;;22.60;47.70;;;;;;5060322;28;20395;-72
2022/04/23 08:38:58;;;;;;;;;;;22.60;47.50;;;;;;5057542;28;19943;-71
2022/04/23 08:41:28;;;;;;;;;;;22.60;47.40;;;;;;5055770;28;20733;-73
2022/04/23 08:43:58;;;;;;;;;;;22.70;47.30;;;;;;5065370;28;19924;-73
2022/04/23 08:46:26;;;;;;;;;;;22.70;47.20;;;;;;5060106;28;19920;-76
2022/04/23 08:48:54;;;;;;;;;;;22.70;47.10;;;;;;5064130;28;19971;-71
2022/04/23 08:51:23;;;;;;;;;;;22.70;47.10;;;;;;5071650;28;19920;-74
2022/04/23 08:53:52;;;;;;;;;;;22.70;46.90;;;;;;5052193;28;19970;-73
2022/04/23 08:56:18;;;;;;;;;;;22.70;46.50;;;;;;5067730;28;20042;-73
2022/04/23 08:58:43;;;;;;;;;;;22.70;46.00;;;;;;5068476;28;20018;-74
2022/04/23 09:01:09;;;;;;;;;;;22.80;46.10;;;;;;5075461;28;19934;-72
2022/04/23 09:03:34;;;;;;;;;;;22.70;46.10;;;;;;5067479;28;19973;-71
2022/04/23 09:06:00;;;;;;;;;;;22.80;46.10;;;;;;5085282;28;19930;-75
2022/04/23 09:08:29;;;;;;;;;;;22.80;46.00;;;;;;5062420;28;19931;-78
2022/04/23 09:10:54;;;;;;;;;;;22.80;46.00;;;;;;5074658;28;20044;-74
2022/04/23 09:13:24;;;;;;;;;;;22.80;45.90;;;;;;5058519;28;20019;-82
2022/04/23 09:24:13;;;;;;;;;;;22.80;45.00;;;;;;5048703;28;19967;-80
2022/04/23 09:26:39;;;;;;;;;;;22.80;44.90;;;;;;5067771;28;20011;-81
2022/04/23 09:29:11;;;;;;;;;;;22.80;44.70;;;;;;5057578;28;19935;-74
2022/04/23 09:31:37;;;;;;;;;;;22.80;44.40;;;;;;5057048;28;19928;-77
2022/04/23 09:34:13;;;;;;;;;;;22.80;44.30;;;;;;5070268;28;19981;-79
2022/04/23 09:36:56;;;;;;;;;;;22.80;44.20;;;;;;5065580;28;19976;-78
2022/04/23 09:39:34;;;;;;;;;;;22.80;44.00;;;;;;5047365;28;19931;-80
2022/04/23 09:42:13;;;;;;;;;;;22.70;43.80;;;;;;5066005;28;20460;-73
2022/04/23 09:44:39;;;;;;;;;;;22.70;43.70;;;;;;5065173;28;19924;-73
2022/04/23 09:47:04;;;;;;;;;;;22.70;43.60;;;;;;5083824;28;19924;-75
2022/04/23 09:49:30;;;;;;;;;;;22.70;43.60;;;;;;5066986;28;19942;-74
2022/04/23 09:52:06;;;;;;;;;;;22.70;43.40;;;;;;5068503;28;20023;-78
2022/04/23 09:54:32;;;;;;;;;;;22.70;43.30;;;;;;5083736;28;20006;-80
2022/04/23 09:56:58;;;;;;;;;;;22.70;43.40;;;;;;5068088;28;19920;-80
2022/04/23 09:59:23;;;;;;;;;;;22.60;43.30;;;;;;5048228;28;19924;-80
2022/04/23 10:01:50;;;;;;;;;;;22.60;43.20;;;;;;5068096;28;19920;-78
2022/04/23 10:04:23;;;;;;;;;;;22.70;43.20;;;;;;5063361;28;19924;-78
2022/04/23 10:06:52;;;;;;;;;;;22.60;43.10;;;;;;5066715;28;19970;-79
2022/04/23 10:09:19;;;;;;;;;;;22.60;43.80;;;;;;5056658;28;19931;-80
2022/04/23 10:11:47;;;;;;;;;;;22.60;43.00;;;;;;5064556;28;20411;-80
2022/04/23 10:14:15;;;;;;;;;;;22.60;42.80;;;;;;5085044;28;19946;-80
2022/04/23 10:16:42;;;;;;;;;;;22.60;42.80;;;;;;5082390;28;19924;-78
2022/04/23 10:19:09;;;;;;;;;;;22.60;42.80;;;;;;5066433;28;21121;-80
2022/04/23 10:21:39;;;;;;;;;;;22.60;42.80;;;;;;5042699;28;20375;-80
2022/04/23 10:24:05;;;;;;;;;;;22.60;42.70;;;;;;5070361;28;19951;-80
2022/04/23 10:26:34;;;;;;;;;;;22.60;42.60;;;;;;5070285;28;19994;-80
2022/04/23 10:29:10;;;;;;;;;;;22.60;42.50;;;;;;5068079;28;20315;-75
2022/04/23 10:31:36;;;;;;;;;;;22.60;42.50;;;;;;5047897;28;20329;-78
2022/04/23 10:34:01;;;;;;;;;;;22.60;42.50;;;;;;5071539;28;19924;-80
2022/04/23 10:36:27;;;;;;;;;;;22.60;42.30;;;;;;5071276;28;19927;-80
2022/04/23 10:39:11;;;;;;;;;;;22.60;42.30;;;;;;5068998;28;20010;-73
2022/04/23 10:41:37;;;;;;;;;;;22.60;42.30;;;;;;5069513;28;19928;-77
2022/04/23 10:44:04;;;;;;;;;;;22.60;42.30;;;;;;5069723;28;19947;-77
2022/04/23 10:46:45;;;;;;;;;;;22.60;43.00;;;;;;5087660;28;19924;-80
2022/04/23 10:49:13;;;;;;;;;;;22.60;42.20;;;;;;5068610;28;19924;-80
2022/04/23 10:51:56;;;;;;;;;;;22.60;42.10;;;;;;5069383;28;19920;-78
2022/04/23 10:54:40;;;;;;;;;;;22.60;42.10;;;;;;5068138;28;19930;-80
2022/04/23 10:57:09;;;;;;;;;;;22.60;42.10;;;;;;5082187;28;19981;-78
2022/04/23 10:59:42;;;;;;;;;;;22.60;42.00;;;;;;5064273;28;20011;-79
2022/04/23 11:02:28;;;;;;;;;;;22.60;41.90;;;;;;5055657;28;19955;-76
2022/04/23 11:13:31;;;;;;;;;;;22.60;41.90;;;;;;5062254;28;20409;-79
2022/04/23 11:16:06;;;;;;;;;;;22.60;42.10;;;;;;5061427;28;19924;-78
2022/04/23 11:18:33;;;;;;;;;;;22.60;42.50;;;;;;5041541;28;19925;-79
2022/04/23 11:21:26;;;;;;;;;;;22.60;42.70;;;;;;5058369;28;19920;-77
2022/04/23 11:23:52;;;;;;;;;;;22.60;42.80;;;;;;5059668;28;19975;-79
2022/04/23 11:26:19;;;;;;;;;;;22.70;42.90;;;;;;5059101;28;20303;-79
2022/04/23 11:28:45;;;;;;;;;;;22.70;42.90;;;;;;5064287;28;19924;-80
2022/04/23 11:31:12;;;;;;;;;;;22.70;42.80;;;;;;5065326;28;19927;-80
2022/04/23 11:33:47;;;;;;;;;;;22.70;42.80;;;;;;5059177;28;19928;-71
2022/04/23 11:36:13;;;;;;;;;;;22.70;42.60;;;;;;5056797;28;20639;-72
2022/04/23 11:38:41;;;;;;;;;;;22.70;42.50;;;;;;5043064;28;20006;-74
2022/04/23 11:41:07;;;;;;;;;;;22.70;42.30;;;;;;5057827;28;19982;-74
2022/04/23 11:43:39;;;;;;;;;;;22.70;42.20;;;;;;5068617;28;20220;-73
2022/04/23 11:46:06;;;;;;;;;;;22.70;42.10;;;;;;5042672;28;19958;-72
2022/04/23 11:48:41;;;;;;;;;;;22.70;42.00;;;;;;5083763;28;19920;-72
2022/04/23 11:51:06;;;;;;;;;;;22.80;42.10;;;;;;5068046;28;20560;-72
2022/04/23 11:53:49;;;;;;;;;;;22.70;41.90;;;;;;5062622;28;19984;-73
2022/04/23 11:56:21;;;;;;;;;;;22.70;41.90;;;;;;5056614;28;19931;-76
2022/04/23 11:58:46;;;;;;;;;;;22.70;41.90;;;;;;5059163;28;19927;-78
2022/04/23 12:01:12;;;;;;;;;;;22.70;42.00;;;;;;5062522;28;19924;-78
2022/04/23 12:03:46;;;;;;;;;;;22.70;42.10;;;;;;5036924;28;19932;-74
2022/04/23 12:06:15;;;;;;;;;;;22.70;42.30;;;;;;5056554;28;19924;-74
2022/04/23 12:08:40;;;;;;;;;;;22.70;42.50;;;;;;5075847;28;19931;-74
2022/04/23 12:11:19;;;;;;;;;;;22.70;42.40;;;;;;5075550;28;20616;-82
2022/04/23 12:13:48;;;;;;;;;;;22.70;42.50;;;;;;5077852;28;20022;-78
2022/04/23 12:16:33;;;;;;;;;;;22.70;42.50;;;;;;5075825;28;19928;-81
2022/04/23 12:19:00;;;;;;;;;;;22.70;42.60;;;;;;5046740;28;20283;-79
2022/04/23 12:21:25;;;;;;;;;;;22.70;42.60;;;;;;5055601;28;20334;-78
2022/04/23 12:23:51;;;;;;;;;;;22.70;42.60;;;;;;5074498;28;19928;-74
2022/04/23 12:26:19;;;;;;;;;;;22.70;42.70;;;;;;5069142;28;19925;-81
2022/04/23 12:42:22;;;;;;;;;;;22.70;42.60;;;;;;5062531;28;19924;-81
2022/04/23 12:44:49;;;;;;;;;;;22.80;42.70;;;;;;5043402;28;19920;-77
2022/04/23 12:47:17;;;;;;;;;;;22.80;42.70;;;;;;5033410;28;19928;-82
2022/04/23 12:50:03;;;;;;;;;;;22.80;42.70;;;;;;5073252;28;20010;-79
2022/04/23 12:52:28;;;;;;;;;;;22.80;42.70;;;;;;5060236;28;19978;-80
2022/04/23 12:55:12;;;;;;;;;;;22.70;42.60;;;;;;5037146;28;19951;-79
2022/04/23 12:57:38;;;;;;;;;;;22.80;42.70;;;;;;5047173;28;20018;-77
2022/04/23 13:00:04;;;;;;;;;;;22.80;42.60;;;;;;5056710;28;19916;-81
2022/04/23 13:02:34;;;;;;;;;;;22.80;42.80;;;;;;5054800;28;19928;-83
2022/04/23 13:04:59;;;;;;;;;;;22.80;42.70;;;;;;5058361;28;19916;-82
2022/04/23 13:10:09;;;;;;;;;;;22.90;42.60;;;;;;5053886;28;19920;-82
2022/04/23 13:12:34;;;;;;;;;;;22.90;42.80;;;;;;5058245;28;19928;-80
2022/04/23 13:15:00;;;;;;;;;;;22.90;42.70;;;;;;5053730;28;19920;-81
2022/04/23 13:17:26;;;;;;;;;;;22.90;42.80;;;;;;5037304;28;19923;-80
2022/04/23 13:19:52;;;;;;;;;;;22.90;42.70;;;;;;5053475;28;19925;-79
2022/04/23 13:22:17;;;;;;;;;;;22.90;43.00;;;;;;5049991;28;20007;-79
2022/04/23 13:24:43;;;;;;;;;;;22.90;43.00;;;;;;5036165;28;19921;-81
2022/04/23 13:27:08;;;;;;;;;;;22.90;43.10;;;;;;5048073;28;20292;-74
2022/04/23 13:29:34;;;;;;;;;;;22.90;43.20;;;;;;5072368;28;19923;-80
2022/04/23 13:32:00;;;;;;;;;;;22.90;43.40;;;;;;5033368;28;20287;-75
2022/04/23 13:34:25;;;;;;;;;;;22.90;43.60;;;;;;5036264;28;19928;-76
2022/04/23 13:36:52;;;;;;;;;;;22.90;43.40;;;;;;5049362;28;20464;-73
2022/04/23 13:39:17;;;;;;;;;;;22.90;43.30;;;;;;5056457;28;19929;-74
2022/04/23 13:41:43;;;;;;;;;;;22.90;43.30;;;;;;5058397;28;19931;-73
2022/04/23 13:44:08;;;;;;;;;;;22.90;43.20;;;;;;5053271;28;20294;-77
2022/04/23 13:46:36;;;;;;;;;;;22.90;42.90;;;;;;5054200;28;20592;-74
2022/04/23 13:49:02;;;;;;;;;;;22.90;43.20;;;;;;5031249;28;20356;-74
2022/04/23 13:51:27;;;;;;;;;;;22.90;43.40;;;;;;5039816;28;19928;-73
2022/04/23 13:53:53;;;;;;;;;;;22.90;43.40;;;;;;5056674;28;19920;-73
2022/04/23 13:56:18;;;;;;;;;;;22.90;43.20;;;;;;5050531;28;20021;-78
2022/04/23 13:58:47;;;;;;;;;;;22.90;43.30;;;;;;5054232;28;19931;-79
2022/04/23 14:01:12;;;;;;;;;;;22.90;44.10;;;;;;5053679;28;19924;-80
2022/04/23 14:11:50;;;;;;;;;;;22.90;42.60;;;;;;5077391;28;20379;-84
2022/04/23 14:14:16;;;;;;;;;;;22.90;42.30;;;;;;5064661;28;19931;-83
2022/04/23 14:16:43;;;;;;;;;;;22.90;42.40;;;;;;5089951;28;20073;-80
2022/04/23 14:19:09;;;;;;;;;;;22.90;42.40;;;;;;5070595;28;19931;-84
2022/04/23 14:21:35;;;;;;;;;;;22.90;42.40;;;;;;5069747;28;19924;-84
2022/04/23 14:24:00;;;;;;;;;;;22.90;42.40;;;;;;5070447;28;19927;-85
2022/04/23 14:26:26;;;;;;;;;;;22.90;42.50;;;;;;5072068;28;19924;-82
2022/04/23 14:28:51;;;;;;;;;;;22.90;42.40;;;;;;5072084;28;19928;-83
2022/04/23 14:31:17;;;;;;;;;;;22.90;42.50;;;;;;5069988;28;19931;-82
2022/04/23 14:33:42;;;;;;;;;;;22.90;42.50;;;;;;5071613;28;19920;-84
2022/04/23 14:36:08;;;;;;;;;;;22.90;42.40;;;;;;5070987;28;19920;-85
2022/04/23 14:38:36;;;;;;;;;;;22.90;42.30;;;;;;5071944;28;19924;-84
2022/04/23 14:41:01;;;;;;;;;;;22.90;42.30;;;;;;5088622;28;20429;-72
2022/04/23 14:43:28;;;;;;;;;;;22.90;42.30;;;;;;5070433;28;19920;-80
2022/04/23 14:45:53;;;;;;;;;;;22.90;42.20;;;;;;5071156;28;19928;-80
2022/04/23 14:48:19;;;;;;;;;;;22.90;42.20;;;;;;5086940;28;20299;-81
2022/04/23 14:53:29;;;;;;;;;;;22.90;42.20;;;;;;5069790;28;19972;-80
2022/04/23 14:55:54;;;;;;;;;;;22.90;42.20;;;;;;5071774;28;19973;-74
2022/04/23 14:58:21;;;;;;;;;;;22.90;42.20;;;;;;5070722;28;19924;-72
2022/04/23 15:00:46;;;;;;;;;;;22.90;42.10;;;;;;5070524;28;19924;-73
2022/04/23 15:03:16;;;;;;;;;;;22.80;41.80;;;;;;5088182;28;20057;-72
2022/04/23 15:05:42;;;;;;;;;;;22.90;42.00;;;;;;5070861;28;19916;-73